KGAO

South Lafourche Leonard Miller Jr Airport

Galliano, Louisiana, USA
METAR KGAO 212315Z AUTO 25007KT 10SM CLR 31/27 A3003 RMK AO2 LTG DSNT NE T03050270
Observed Flight Rules
Aug-21 @ 23:15 UTC (30 minutes ago) Visual Flight Rules
Wind Visibility Clouds
250° at 7 knots 10 miles
  • Clear skies
Temperatures Readings
Current 31°C / 88°F
Dewpoint 27°C / 81°F
Humidity 79%
Altimeter 30.03" Hg
Pressure 1017 hPa
Elevation 1
METAR KGAO 212315Z AUTO 25007KT 10SM CLR 31/27 A3003 RMK AO2 LTG DSNT NE T03050270
Observed Flight Rules
Aug-21 @ 23:15 UTC
(30 minutes ago)
VFR
Wind Visibility
250° at 7 knots 10 miles
Clouds
  • Clear skies
Temperature Dewpoint
31°C / 88°F 27°C / 81°F
Humidity Altimeter Pressure
79% 30.03" Hg 1017 hPa